createdAt,value
2018-08-17T06:39:27.471Z,7.60
2018-08-17T06:44:31.300Z,7.27
2018-08-17T06:49:35.135Z,6.40
2018-08-17T06:54:39.065Z,5.63
2018-08-17T06:59:43.525Z,5.63
2018-08-17T07:04:47.229Z,5.20
2018-08-17T07:09:51.729Z,5.03
2018-08-17T07:14:55.812Z,4.90
2018-08-17T07:19:59.600Z,5.30
2018-08-17T07:25:03.474Z,5.80
2018-08-17T07:30:08.859Z,5.70
2018-08-17T07:35:12.894Z,5.97
2018-08-17T07:40:17.076Z,5.77
2018-08-17T07:45:20.690Z,6.00
2018-08-17T07:50:24.816Z,5.70
2018-08-17T07:55:28.611Z,5.60
2018-08-17T08:00:32.576Z,5.93
2018-08-17T08:05:36.551Z,5.80
2018-08-17T08:10:40.368Z,6.00
2018-08-17T08:15:44.194Z,6.03
2018-08-17T08:20:48.574Z,6.50
2018-08-17T08:25:52.743Z,5.67
2018-08-17T08:30:56.642Z,6.53
2018-08-17T08:36:00.502Z,6.80
2018-08-17T08:41:04.212Z,7.00
2018-08-17T08:46:07.936Z,6.63
2018-08-17T08:51:12.125Z,5.57
2018-08-17T08:56:15.959Z,5.80
2018-08-17T09:01:19.700Z,5.83
2018-08-17T09:06:24.352Z,7.80
2018-08-17T09:11:28.315Z,6.83
2018-08-17T09:16:32.469Z,6.73
2018-08-17T09:21:36.212Z,6.53
2018-08-17T09:26:39.761Z,7.80
2018-08-17T09:31:43.538Z,7.57
2018-08-17T09:36:47.259Z,6.97
2018-08-17T09:41:51.181Z,6.33
2018-08-17T09:46:54.849Z,6.63
2018-08-17T09:51:58.608Z,6.67
2018-08-17T09:57:02.322Z,6.97
2018-08-17T10:02:11.149Z,7.43
2018-08-17T10:12:48.616Z,6.57
2018-08-17T10:17:52.705Z,6.40
2018-08-17T10:22:56.439Z,6.20
2018-08-17T10:28:01.075Z,7.20
2018-08-17T10:33:04.907Z,7.67
2018-08-17T10:43:37.753Z,7.13
2018-08-17T10:54:20.800Z,7.50
2018-08-17T10:59:24.484Z,8.50
2018-08-17T11:04:28.315Z,9.00
2018-08-17T11:09:32.315Z,10.07
2018-08-17T11:14:36.114Z,9.17
2018-08-17T11:19:39.922Z,9.20
2018-08-17T11:24:43.826Z,10.27
2018-08-17T11:29:47.567Z,10.80
2018-08-17T11:35:16.160Z,9.47
2018-08-17T11:40:19.860Z,7.77
2018-08-17T11:45:38.390Z,9.40
2018-08-17T11:50:42.474Z,9.50
2018-08-17T11:55:46.177Z,8.30
2018-08-17T12:00:59.192Z,6.63
2018-08-17T12:06:02.986Z,8.37
2018-08-17T12:11:07.697Z,8.73
2018-08-17T12:16:12.941Z,7.40
2018-08-17T12:21:16.909Z,6.30
2018-08-17T12:26:21.143Z,5.00
2018-08-17T12:31:25.124Z,5.63
2018-08-17T12:36:29.079Z,5.17
2018-08-17T12:41:33.036Z,4.20
2018-08-17T12:46:36.981Z,4.43
2018-08-17T12:51:40.856Z,3.93
2018-08-17T12:56:44.816Z,4.00
2018-08-17T13:01:48.676Z,4.30
2018-08-17T13:07:01.940Z,5.70
2018-08-17T13:12:05.909Z,4.63
2018-08-17T13:17:09.868Z,5.10
2018-08-17T13:22:14.090Z,6.30
2018-08-17T13:27:18.013Z,5.23
2018-08-17T13:32:21.830Z,6.47
2018-08-17T13:37:25.753Z,6.70
2018-08-17T13:42:29.620Z,6.27
2018-08-17T13:47:33.632Z,5.23
2018-08-17T13:52:37.614Z,5.13
2018-08-17T13:57:41.526Z,6.10
2018-08-17T14:02:45.469Z,6.60
2018-08-17T14:07:49.447Z,6.80
2018-08-17T14:12:53.607Z,7.67
2018-08-17T14:17:57.555Z,6.40
2018-08-17T14:23:01.258Z,5.23
2018-08-17T14:28:05.073Z,4.03
2018-08-17T14:33:08.920Z,3.97
2018-08-17T14:38:12.665Z,3.87
2018-08-17T14:43:16.373Z,2.87
2018-08-17T15:21:08.333Z,3.43
2018-08-17T15:26:12.020Z,4.60
2018-08-17T15:31:15.704Z,4.00
2018-08-17T16:14:37.073Z,4.10
2018-08-17T16:19:40.804Z,3.20
2018-08-17T16:24:44.458Z,2.20
2018-08-17T16:29:48.296Z,2.10
2018-08-17T16:34:52.223Z,2.10
2018-08-17T16:39:56.570Z,2.40
2018-08-17T16:45:00.292Z,1.90
2018-08-17T16:50:04.267Z,2.93
2018-08-17T16:55:08.145Z,2.77
2018-08-17T17:00:12.275Z,2.17
2018-08-17T17:05:16.156Z,2.20
2018-08-17T17:10:20.037Z,2.20
2018-08-17T17:15:24.047Z,1.60
2018-08-17T17:20:34.392Z,2.30
2018-08-17T17:25:38.316Z,1.93
2018-08-17T17:30:47.388Z,2.03
2018-08-17T17:35:51.371Z,2.10
2018-08-17T17:40:55.292Z,2.03
2018-08-17T17:45:59.178Z,1.97
2018-08-17T17:51:03.174Z,2.00
2018-08-17T17:56:07.106Z,1.87
2018-08-17T18:01:11.211Z,2.00
2018-08-17T18:06:15.197Z,1.97
2018-08-17T18:11:19.183Z,2.00
2018-08-17T18:16:22.901Z,1.73
2018-08-17T18:21:30.731Z,1.90
2018-08-17T18:26:34.777Z,1.73
2018-08-17T18:31:38.715Z,2.00
2018-08-17T18:36:42.603Z,2.37
2018-08-17T18:41:46.452Z,2.20
2018-08-17T18:46:50.459Z,1.77
2018-08-17T18:51:54.394Z,2.30
2018-08-17T18:56:58.972Z,2.00
2018-08-17T19:02:02.896Z,1.77
2018-08-17T19:07:07.239Z,2.03
2018-08-17T19:12:11.180Z,2.20
2018-08-17T19:17:31.680Z,2.53
2018-08-17T19:22:37.267Z,3.07
2018-08-17T19:38:45.154Z,2.40
2018-08-17T19:43:49.105Z,2.23
2018-08-17T19:48:53.091Z,2.37
2018-08-17T19:53:57.005Z,2.10
2018-08-17T19:59:00.817Z,2.40
2018-08-17T20:04:04.616Z,2.07
2018-08-17T20:14:36.296Z,2.20
2018-08-17T20:19:45.459Z,2.30
2018-08-17T20:24:49.502Z,2.53
2018-08-17T20:29:53.602Z,2.40
2018-08-17T20:34:57.710Z,2.90
2018-08-17T20:40:01.851Z,3.33
2018-08-17T21:07:17.815Z,2.70
2018-08-17T21:12:21.884Z,3.10
2018-08-17T21:17:25.617Z,2.60
2018-08-17T21:22:29.693Z,2.90
2018-08-17T21:27:34.404Z,3.00
2018-08-17T21:32:38.558Z,3.10
2018-08-17T21:37:42.501Z,3.67
2018-08-17T21:42:46.764Z,3.00
2018-08-17T21:53:37.103Z,3.33
2018-08-17T21:58:41.372Z,3.30
2018-08-17T22:03:45.353Z,4.00
2018-08-17T22:08:49.795Z,2.87
2018-08-17T22:13:54.227Z,3.67
2018-08-17T22:19:05.950Z,3.50
2018-08-17T22:24:09.834Z,3.70
2018-08-17T22:34:52.631Z,3.73
2018-08-17T22:39:56.781Z,3.83
2018-08-17T22:45:01.139Z,3.97
2018-08-17T22:50:04.983Z,4.07
2018-08-17T22:55:09.897Z,4.17
2018-08-17T23:00:29.736Z,4.10
2018-08-17T23:05:36.794Z,4.20
2018-08-17T23:10:40.639Z,4.23
2018-08-17T23:15:44.841Z,4.20
2018-08-17T23:20:48.634Z,4.27
2018-08-17T23:25:53.036Z,4.17
2018-08-17T23:30:57.068Z,4.70
2018-08-17T23:36:01.121Z,4.57
2018-08-17T23:41:05.261Z,4.57
2018-08-17T23:46:09.003Z,4.50
2018-08-17T23:51:13.075Z,4.07
2018-08-17T23:56:17.203Z,4.23
